Station: Palmerville  

  Atmospheric Gas Attenuation - ITU Rec 676-11   ----------------- dB/100km -----------------
Date Time Temp RH % AH g/m3 Dew Point Wind Direction Speed kph Gust kph Barometer mB Rainfall Since 9am 24GHz 47GHz 76GHz 122GHz 134GHz 241GHz
08/05 12:30 32.8 54 19.03 22.3 11 19 1011.8 0 40.2 36.5 69.8 184.6 203.0 705.9
08/05 12:20 32.4 51 17.59 21 9 17 1011.9 0 37.3 34.3 64.1 169.6 184.4 641.1
08/05 12:10 31.6 51 16.86 20.5 11 15 1012.1 0 35.8 33.4 61.8 163.4 176.5 613.7
08/05 12:00 31.2 53 17.15 20.5 11 22 1012.4 0 36.5 34.0 63.3 167.4 181.4 630.5
08/05 11:50 31.3 55 17.89 21.2 9 11 1012.6 0 38.0 35.2 66.3 175.4 191.2 664.8
08/05 11:40 31.4 56 18.31 21.6 7 9 1012.7 0 38.9 35.9 68.0 179.9 196.8 684.2
08/05 11:30 30.4 60 18.6 21.8 11 17 1012.9 0 39.6 36.8 70.2 185.6 203.5 707.4
08/05 11:20 30.2 55 16.86 20.2 13 17 1013.1 0 35.9 34.0 63.0 166.4 179.9 625.2
08/05 11:10 30 56 16.99 20.3 13 17 1013.2 0 36.2 34.3 63.7 168.3 182.2 633.0
08/05 11:00 29.4 52 15.27 18.5 11 19 1013.2 0 32.7 31.6 57.1 150.8 160.5 557.3
08/05 10:50 30.3 55 16.95 20.5 7 9 1013.5 0 36.1 34.1 63.3 167.3 180.9 628.9
08/05 10:40 29.6 53 15.73 19 9 13 1013.6 0 33.6 32.3 58.8 155.4 166.2 577.2
08/05 10:30 28.7 59 16.67 19.9 13 17 1013.7 0 35.7 34.3 63.4 167.6 180.9 628.5
08/05 10:20 27.8 61 16.41 19.8 6 6 1013.8 0 35.2 34.2 63.1 166.6 179.4 623.3
08/05 10:10 27.3 66 17.27 20.4 4 7 1013.8 0 37.1 35.9 67.2 177.6 192.8 669.7
08/05 10:00 26.1 72 17.63 20.7 7 11 1013.7 0 37.9 37.0 69.8 184.7 201.1 698.5
08/05 09:50 25.2 69 16.06 19.1 6 7 1013.8 0 34.7 34.6 63.7 168.2 180.7 627.2
08/05 09:40 24.6 78 17.56 20.5 0 0 1014 0 37.9 37.6 70.9 187.5 204.1 708.8
08/05 09:30 23.9 79 17.09 20 4 9 1013.8 0 37.0 37.0 69.4 183.4 198.9 690.7
08/05 09:20 22.7 85 17.17 20 6 7 1014 0 37.3 37.7 70.9 187.4 203.4 706.0
08/05 09:10 22.3 88 17.38 20.2 6 7 1014.1 0 37.8 38.3 72.3 191.0 207.7 721.1
08/05 09:00 21.9 95 18.33 21.1 4 7 1013.8 0 39.8 40.3 77.2 204.1 223.7 776.6
08/05 08:50 21.1 91 16.77 19.6 2 6 1013.9 0 36.6 37.6 70.5 186.3 201.6 699.5
08/05 08:40 20.8 92 16.66 19.5 2 6 1013.8 0 36.4 37.6 70.2 185.7 200.7 696.3
08/05 08:30 20.6 97 17.36 20.1 2 7 1013.6 0 37.9 39.0 73.8 195.0 212.1 736.2
08/05 08:20 20 96 16.59 19.3 4 6 1013.6 0 36.3 37.8 70.6 186.7 201.7 699.9
08/05 08:10 19.6 95 16.04 18.8 0 0 1013.5 0 35.2 36.9 68.4 180.7 194.3 673.8
08/05 08:00 19.4 96 16.02 18.7 6 11 1013.3 0 35.1 37.0 68.5 180.9 194.4 674.4
08/05 07:50 19.3 96 15.92 18.6 7 9 1013.2 0 34.9 36.8 68.1 179.9 193.1 669.8
08/05 07:40 19 97 15.81 18.5 9 11 1013.1 0 34.7 36.7 67.8 179.2 192.2 666.5
08/05 07:30 18.8 97 15.62 18.3 7 11 1013 0 34.3 36.4 67.1 177.3 189.8 658.0
08/05 07:20 18.6 97 15.44 18.1 7 7 1013 0 34.0 36.2 66.4 175.5 187.5 650.1
08/05 07:10 18.3 97 15.17 17.8 4 6 1013 0 33.4 35.8 65.4 172.8 184.1 638.2
08/05 07:00 18 97 14.9 17.5 6 9 1012.8 0 32.8 35.4 64.4 170.1 180.7 626.2
08/05 06:50 17.7 97 14.63 17.2 7 9 1012.7 0 32.3 35.0 63.4 167.4 177.2 614.3
08/05 06:40 17.2 96 14.06 16.6 4 6 1012.9 0 31.1 34.2 61.2 161.5 169.8 588.2
08/05 06:30 17.1 95 13.83 16.3 2 7 1012.7 0 30.6 33.8 60.2 158.8 166.5 576.8
08/05 06:20 17.2 94 13.76 16.2 0 0 1012.6 0 30.5 33.6 59.8 157.7 165.2 572.4
08/05 06:10 17.3 95 13.99 16.5 0 0 1012.6 0 30.9 34.0 60.7 160.3 168.5 583.6
08/05 06:00 17.4 97 14.37 16.9 4 7 1012.3 0 31.8 34.7 62.4 164.8 173.9 602.7
08/05 05:50 17.1 95 13.83 16.3 0 0 1012.1 0 30.6 33.8 60.1 158.7 166.4 576.6
08/05 05:40 17.1 95 13.83 16.3 0 0 1012.1 0 30.6 33.8 60.1 158.7 166.4 576.6
08/05 05:30 16.9 95 13.66 16.1 0 0 1012.1 0 30.3 33.5 59.5 157.1 164.3 569.2
08/05 05:20 16.8 94 13.44 15.8 0 0 1012.1 0 29.8 33.2 58.6 154.6 161.3 558.5
08/05 05:10 16.7 94 13.36 15.7 0 0 1012.1 0 29.6 33.1 58.3 153.8 160.3 555.1
08/05 05:00 16.9 94 13.52 15.9 0 0 1012 0 30.0 33.3 58.9 155.4 162.2 561.9
08/05 04:50 16.9 94 13.52 15.9 0 0 1011.9 0 30.0 33.3 58.9 155.4 162.2 561.8
08/05 04:40 17 93 13.46 15.9 0 0 1011.8 0 29.8 33.1 58.5 154.4 161.1 557.9
08/05 04:30 17.3 95 13.99 16.5 0 0 1011.8 0 30.9 34.0 60.7 160.2 168.4 583.3
08/05 04:20 17.5 95 14.16 16.7 0 0 1011.8 0 31.3 34.2 61.3 161.9 170.5 590.7
08/05 04:10 17.7 95 14.33 16.9 6 7 1011.7 0 31.6 34.4 61.9 163.5 172.6 598.0
08/05 04:00 17.9 95 14.5 17.1 2 6 1011.7 0 32.0 34.7 62.6 165.2 174.7 605.3
08/05 03:50 18.4 96 15.1 17.8 6 6 1011.6 0 33.2 35.6 64.9 171.5 182.6 633.0
08/05 03:40 18.2 95 14.76 17.4 7 7 1011.6 0 32.5 35.0 63.5 167.7 177.9 616.6
08/05 03:30 18.3 95 14.85 17.5 7 9 1011.7 0 32.7 35.2 63.8 168.6 179.0 620.6
08/05 03:20 18.3 95 14.85 17.5 7 7 1011.8 0 32.7 35.2 63.9 168.6 179.0 620.6
08/05 03:10 18.4 94 14.78 17.4 7 9 1011.8 0 32.6 35.0 63.4 167.6 177.7 616.1
08/05 03:00 18.6 95 15.12 17.8 7 9 1012 0 33.3 35.5 64.9 171.3 182.5 632.5
08/05 02:50 18.9 97 15.71 18.4 7 7 1011.9 0 34.5 36.5 67.4 178.0 190.7 661.5
08/05 02:40 18.8 97 15.62 18.3 6 7 1011.9 0 34.3 36.4 67.0 177.1 189.6 657.5
08/05 02:30 18.5 95 15.03 17.7 7 9 1011.9 0 33.1 35.4 64.5 170.4 181.3 628.6
08/05 02:20 18.4 93 14.63 17.2 7 7 1012 0 32.2 34.7 62.8 165.7 175.5 608.3
08/05 02:10 18.4 93 14.63 17.2 6 7 1012 0 32.2 34.7 62.8 165.7 175.5 608.3
08/05 02:00 18.7 93 14.89 17.5 2 6 1012.1 0 32.8 35.1 63.7 168.3 178.7 619.6
08/05 01:50 19.2 95 15.66 18.4 6 6 1012.1 0 34.4 36.3 66.9 176.7 189.2 656.3
08/05 01:40 19.1 94 15.41 18.1 7 7 1012.2 0 33.9 35.9 65.8 173.8 185.7 643.8
08/05 01:30 19.1 92 15.08 17.8 6 7 1012.3 0 33.1 35.3 64.3 169.8 180.7 626.4
08/05 01:20 19.4 94 15.68 18.4 6 6 1012.3 0 34.4 36.3 66.8 176.5 189.1 655.7
08/05 01:10 19.5 94 15.77 18.5 0 4 1012.4 0 34.6 36.4 67.2 177.4 190.2 659.7
08/05 01:00 19.6 95 16.04 18.8 2 7 1012.5 0 35.2 36.9 68.3 180.6 194.1 673.3
08/05 00:50 19.5 95 15.94 18.7 7 7 1012.6 0 35.0 36.7 68.0 179.6 192.8 668.9
08/05 00:40 19.1 91 14.92 17.6 6 6 1012.5 0 32.8 35.0 63.6 167.8 178.3 618.1
08/05 00:30 19.3 91 15.09 17.8 6 7 1012.6 0 33.1 35.2 64.2 169.5 180.4 625.4
08/05 00:20 19.5 90 15.1 17.8 6 7 1012.5 0 33.1 35.2 64.0 169.1 180.0 624.3
08/05 00:10 19.9 90 15.46 18.2 4 7 1012.7 0 33.9 35.7 65.4 172.7 184.5 639.9
08/05 00:00 20.4 89 15.74 18.5 0 0 1012.8 0 34.4 36.0 66.2 175.0 187.5 650.5
07/05 23:50 20.6 88 15.75 18.5 0 0 1012.9 0 34.4 35.9 66.1 174.7 187.2 649.3
07/05 23:40 20.6 89 15.93 18.7 6 6 1012.9 0 34.8 36.2 67.0 176.9 189.9 658.8
07/05 23:30 20.5 89 15.83 18.6 2 6 1012.8 0 34.6 36.1 66.6 175.9 188.6 654.3
07/05 23:20 20.8 89 16.11 18.9 4 6 1013 0 35.2 36.5 67.6 178.7 192.2 666.6
07/05 23:10 20.7 88 15.84 18.6 6 7 1013 0 34.6 36.0 66.5 175.6 188.3 653.2
07/05 23:00 20.9 88 16.03 18.8 4 9 1013 0 35.0 36.3 67.2 177.5 190.7 661.5
07/05 22:50 20.7 88 15.84 18.6 4 6 1013.2 0 34.6 36.1 66.5 175.6 188.3 653.3
07/05 22:40 20.4 88 15.57 18.3 0 0 1013.2 0 34.1 35.7 65.5 173.0 185.0 641.7
07/05 22:30 20.7 88 15.84 18.6 0 0 1013.2 0 34.6 36.1 66.5 175.6 188.3 653.3
07/05 22:20 20.8 86 15.57 18.4 0 0 1013.4 0 34.0 35.5 65.2 172.1 184.1 638.4
07/05 22:10 21.3 85 15.84 18.7 0 0 1013.4 0 34.6 35.8 66.0 174.3 186.9 648.3
07/05 22:00 21.6 83 15.74 18.6 0 0 1013.3 0 34.3 35.5 65.2 172.4 184.6 640.5
07/05 21:50 22.2 80 15.71 18.6 0 0 1013.4 0 34.2 35.2 64.6 170.7 182.7 634.0
07/05 21:40 22.1 80 15.62 18.5 0 0 1013.3 0 34.0 35.1 64.3 169.8 181.6 630.2
07/05 21:30 22.4 79 15.69 18.6 6 9 1013.2 0 34.2 35.1 64.3 169.9 181.9 631.2
07/05 21:20 22.1 80 15.62 18.5 6 6 1013.2 0 34.0 35.1 64.3 169.8 181.6 630.1
07/05 21:10 22 81 15.72 18.6 6 6 1013.3 0 34.3 35.3 64.8 171.2 183.3 636.1
07/05 21:00 22.1 80 15.62 18.5 0 0 1013.2 0 34.0 35.1 64.3 169.8 181.6 630.1
07/05 20:50 22.2 80 15.71 18.6 0 2 1013.3 0 34.2 35.2 64.6 170.6 182.7 633.9
07/05 20:40 22.4 78 15.49 18.4 4 6 1013.2 0 33.7 34.7 63.4 167.6 179.0 621.0
07/05 20:30 22.6 79 15.87 18.8 0 6 1013.1 0 34.5 35.3 65.0 171.6 184.1 638.7
07/05 20:20 23.2 75 15.59 18.5 0 0 1013.1 0 33.9 34.6 63.2 167.0 178.5 619.6
07/05 20:10 23.7 72 15.4 18.4 4 6 1012.9 0 33.4 34.0 62.0 163.7 174.6 606.0
07/05 20:00 24.1 70 15.32 18.3 6 9 1012.7 0 33.2 33.7 61.3 161.9 172.5 598.8

Last Refresh: 08-May-2026 12:08:28

Bureau of Meteorology